sensor_id;sensor_type;location;lat;lon;timestamp;pressure;altitude;pressure_sealevel;temperature;humidity
66273;BME280;58450;52.150;4.466;2023-05-23T00:02:05;102050.97;;;13.00;100.00
66273;BME280;58450;52.150;4.466;2023-05-23T00:04:33;102052.66;;;13.01;100.00
66273;BME280;58450;52.150;4.466;2023-05-23T00:07:01;102053.00;;;12.98;100.00
66273;BME280;58450;52.150;4.466;2023-05-23T00:09:30;102068.03;;;13.09;100.00
66273;BME280;58450;52.150;4.466;2023-05-23T00:11:58;102054.69;;;12.99;100.00
66273;BME280;58450;52.150;4.466;2023-05-23T00:14:26;102058.22;;;13.08;100.00
66273;BME280;58450;52.150;4.466;2023-05-23T00:16:58;102058.06;;;12.93;100.00
66273;BME280;58450;52.150;4.466;2023-05-23T00:19:26;102064.50;;;12.92;100.00
66273;BME280;58450;52.150;4.466;2023-05-23T00:21:54;102060.63;;;12.86;100.00
66273;BME280;58450;52.150;4.466;2023-05-23T00:24:23;102065.19;;;12.86;100.00
66273;BME280;58450;52.150;4.466;2023-05-23T00:26:52;102053.69;;;12.92;100.00
66273;BME280;58450;52.150;4.466;2023-05-23T00:29:19;102068.88;;;12.93;100.00
66273;BME280;58450;52.150;4.466;2023-05-23T00:31:47;102058.06;;;13.01;100.00
66273;BME280;58450;52.150;4.466;2023-05-23T00:34:15;102067.47;;;13.14;100.00
66273;BME280;58450;52.150;4.466;2023-05-23T00:36:43;102063.63;;;13.08;100.00
66273;BME280;58450;52.150;4.466;2023-05-23T00:39:12;102074.75;;;13.22;100.00
66273;BME280;58450;52.150;4.466;2023-05-23T00:41:45;102070.81;;;13.24;100.00
66273;BME280;58450;52.150;4.466;2023-05-23T00:44:14;102068.38;;;13.06;100.00
66273;BME280;58450;52.150;4.466;2023-05-23T00:46:44;102071.88;;;13.15;100.00
66273;BME280;58450;52.150;4.466;2023-05-23T00:49:17;102055.50;;;13.17;100.00
66273;BME280;58450;52.150;4.466;2023-05-23T00:51:46;102064.09;;;13.20;100.00
66273;BME280;58450;52.150;4.466;2023-05-23T00:54:14;102068.47;;;13.21;100.00
66273;BME280;58450;52.150;4.466;2023-05-23T00:56:47;102070.81;;;13.24;100.00
66273;BME280;58450;52.150;4.466;2023-05-23T00:59:16;102071.84;;;13.23;100.00
66273;BME280;58450;52.150;4.466;2023-05-23T01:01:43;102070.63;;;13.26;100.00
66273;BME280;58450;52.150;4.466;2023-05-23T01:04:12;102069.94;;;13.32;100.00
66273;BME280;58450;52.150;4.466;2023-05-23T01:06:41;102067.13;;;13.17;100.00
66273;BME280;58450;52.150;4.466;2023-05-23T01:09:11;102077.25;;;13.23;100.00
66273;BME280;58450;52.150;4.466;2023-05-23T01:11:43;102062.03;;;13.30;100.00
66273;BME280;58450;52.150;4.466;2023-05-23T01:14:23;102060.47;;;13.36;100.00
66273;BME280;58450;52.150;4.466;2023-05-23T01:17:02;102071.13;;;13.38;100.00
66273;BME280;58450;52.150;4.466;2023-05-23T01:19:57;102064.06;;;13.28;100.00
66273;BME280;58450;52.150;4.466;2023-05-23T01:22:58;102070.97;;;13.31;100.00
66273;BME280;58450;52.150;4.466;2023-05-23T01:25:45;102071.31;;;13.28;100.00
66273;BME280;58450;52.150;4.466;2023-05-23T01:28:28;102079.56;;;13.35;100.00
66273;BME280;58450;52.150;4.466;2023-05-23T01:31:01;102081.09;;;13.29;100.00
66273;BME280;58450;52.150;4.466;2023-05-23T01:33:31;102078.91;;;13.33;100.00
66273;BME280;58450;52.150;4.466;2023-05-23T01:36:01;102075.84;;;13.36;100.00
66273;BME280;58450;52.150;4.466;2023-05-23T01:38:29;102075.53;;;13.30;100.00
66273;BME280;58450;52.150;4.466;2023-05-23T01:40:57;102074.69;;;13.30;100.00
66273;BME280;58450;52.150;4.466;2023-05-23T01:43:26;102078.91;;;13.33;100.00
66273;BME280;58450;52.150;4.466;2023-05-23T01:45:55;102084.47;;;13.31;100.00
66273;BME280;58450;52.150;4.466;2023-05-23T01:48:24;102082.63;;;13.32;100.00
66273;BME280;58450;52.150;4.466;2023-05-23T01:50:54;102088.19;;;13.30;100.00
66273;BME280;58450;52.150;4.466;2023-05-23T01:53:22;102094.34;;;13.15;100.00
66273;BME280;58450;52.150;4.466;2023-05-23T01:55:51;102087.06;;;13.16;100.00
66273;BME280;58450;52.150;4.466;2023-05-23T01:58:19;102083.34;;;13.17;100.00
66273;BME280;58450;52.150;4.466;2023-05-23T02:00:48;102085.84;;;13.27;100.00
66273;BME280;58450;52.150;4.466;2023-05-23T02:03:17;102086.84;;;13.26;100.00
66273;BME280;58450;52.150;4.466;2023-05-23T02:05:44;102089.72;;;13.33;100.00
66273;BME280;58450;52.150;4.466;2023-05-23T02:08:12;102092.66;;;13.23;100.00
66273;BME280;58450;52.150;4.466;2023-05-23T02:10:39;102091.25;;;13.27;100.00
66273;BME280;58450;52.150;4.466;2023-05-23T02:13:06;102094.69;;;13.21;100.00
66273;BME280;58450;52.150;4.466;2023-05-23T02:15:34;102093.81;;;13.20;100.00
66273;BME280;58450;52.150;4.466;2023-05-23T02:18:03;102110.16;;;13.27;100.00
66273;BME280;58450;52.150;4.466;2023-05-23T02:20:31;102115.28;;;13.22;100.00
66273;BME280;58450;52.150;4.466;2023-05-23T02:22:58;102114.63;;;13.20;100.00
66273;BME280;58450;52.150;4.466;2023-05-23T02:25:26;102110.38;;;13.25;100.00
66273;BME280;58450;52.150;4.466;2023-05-23T02:27:53;102118.47;;;13.25;100.00
66273;BME280;58450;52.150;4.466;2023-05-23T02:30:21;102109.34;;;13.26;100.00
66273;BME280;58450;52.150;4.466;2023-05-23T02:32:48;102117.81;;;13.15;100.00
66273;BME280;58450;52.150;4.466;2023-05-23T02:35:17;102111.56;;;13.23;100.00
66273;BME280;58450;52.150;4.466;2023-05-23T02:37:46;102117.81;;;13.23;100.00
66273;BME280;58450;52.150;4.466;2023-05-23T02:40:14;102119.50;;;13.16;100.00
66273;BME280;58450;52.150;4.466;2023-05-23T02:42:41;102123.06;;;13.17;100.00
66273;BME280;58450;52.150;4.466;2023-05-23T02:45:09;102111.75;;;13.05;100.00
66273;BME280;58450;52.150;4.466;2023-05-23T02:47:37;102123.59;;;13.04;100.00
66273;BME280;58450;52.150;4.466;2023-05-23T02:50:06;102120.72;;;13.05;100.00
66273;BME280;58450;52.150;4.466;2023-05-23T02:52:35;102131.19;;;13.17;100.00
66273;BME280;58450;52.150;4.466;2023-05-23T02:55:03;102135.22;;;13.21;100.00
66273;BME280;58450;52.150;4.466;2023-05-23T02:57:31;102132.47;;;13.29;100.00
66273;BME280;58450;52.150;4.466;2023-05-23T02:59:59;102133.88;;;13.17;100.00
66273;BME280;58450;52.150;4.466;2023-05-23T03:02:26;102149.75;;;13.20;100.00
66273;BME280;58450;52.150;4.466;2023-05-23T03:04:54;102135.75;;;12.91;100.00
66273;BME280;58450;52.150;4.466;2023-05-23T03:07:22;102149.28;;;12.91;100.00
66273;BME280;58450;52.150;4.466;2023-05-23T03:09:52;102144.06;;;12.81;100.00
66273;BME280;58450;52.150;4.466;2023-05-23T03:12:19;102159.94;;;12.68;100.00
66273;BME280;58450;52.150;4.466;2023-05-23T03:14:47;102152.84;;;12.67;100.00
66273;BME280;58450;52.150;4.466;2023-05-23T03:17:14;102152.16;;;12.73;100.00
66273;BME280;58450;52.150;4.466;2023-05-23T03:19:42;102148.78;;;12.71;100.00
66273;BME280;58450;52.150;4.466;2023-05-23T03:22:09;102158.09;;;12.60;100.00
66273;BME280;58450;52.150;4.466;2023-05-23T03:24:37;102152.00;;;12.66;100.00
66273;BME280;58450;52.150;4.466;2023-05-23T03:27:05;102153.03;;;12.74;100.00
66273;BME280;58450;52.150;4.466;2023-05-23T03:29:33;102146.09;;;12.79;100.00
66273;BME280;58450;52.150;4.466;2023-05-23T03:32:01;102160.13;;;12.75;100.00
66273;BME280;58450;52.150;4.466;2023-05-23T03:34:28;102161.47;;;12.70;100.00
66273;BME280;58450;52.150;4.466;2023-05-23T03:36:58;102163.28;;;12.53;100.00
66273;BME280;58450;52.150;4.466;2023-05-23T03:39:25;102167.00;;;12.52;100.00
66273;BME280;58450;52.150;4.466;2023-05-23T03:41:53;102158.75;;;12.46;100.00
66273;BME280;58450;52.150;4.466;2023-05-23T03:44:22;102165.50;;;12.50;100.00
66273;BME280;58450;52.150;4.466;2023-05-23T03:46:49;102158.91;;;12.44;100.00
66273;BME280;58450;52.150;4.466;2023-05-23T03:49:17;102162.63;;;12.51;100.00
66273;BME280;58450;52.150;4.466;2023-05-23T03:51:44;102171.91;;;12.49;100.00
66273;BME280;58450;52.150;4.466;2023-05-23T03:54:12;102162.44;;;12.28;100.00
66273;BME280;58450;52.150;4.466;2023-05-23T03:56:39;102170.84;;;12.25;100.00
66273;BME280;58450;52.150;4.466;2023-05-23T03:59:07;102172.53;;;12.26;100.00
66273;BME280;58450;52.150;4.466;2023-05-23T04:01:35;102180.31;;;12.29;100.00
66273;BME280;58450;52.150;4.466;2023-05-23T04:04:04;102190.28;;;12.45;100.00
66273;BME280;58450;52.150;4.466;2023-05-23T04:06:32;102193.66;;;12.39;100.00
66273;BME280;58450;52.150;4.466;2023-05-23T04:08:59;102187.94;;;12.34;100.00
66273;BME280;58450;52.150;4.466;2023-05-23T04:11:27;102192.13;;;12.28;100.00
66273;BME280;58450;52.150;4.466;2023-05-23T04:13:55;102185.03;;;12.27;100.00
66273;BME280;58450;52.150;4.466;2023-05-23T04:16:23;102209.66;;;12.24;100.00
66273;BME280;58450;52.150;4.466;2023-05-23T04:18:52;102201.88;;;12.21;100.00
66273;BME280;58450;52.150;4.466;2023-05-23T04:21:20;102203.91;;;12.19;100.00
66273;BME280;58450;52.150;4.466;2023-05-23T04:23:48;102204.56;;;12.12;100.00
66273;BME280;58450;52.150;4.466;2023-05-23T04:26:15;102204.56;;;12.21;100.00
66273;BME280;58450;52.150;4.466;2023-05-23T04:28:43;102208.63;;;12.25;100.00
66273;BME280;58450;52.150;4.466;2023-05-23T04:31:11;102205.28;;;12.31;100.00
66273;BME280;58450;52.150;4.466;2023-05-23T04:33:39;102210.47;;;12.16;100.00
66273;BME280;58450;52.150;4.466;2023-05-23T04:36:09;102206.13;;;12.23;100.00
66273;BME280;58450;52.150;4.466;2023-05-23T04:38:36;102217.06;;;12.22;100.00
66273;BME280;58450;52.150;4.466;2023-05-23T04:41:06;102217.72;;;12.16;100.00
66273;BME280;58450;52.150;4.466;2023-05-23T04:43:35;102224.50;;;12.28;100.00
66273;BME280;58450;52.150;4.466;2023-05-23T04:46:07;102230.75;;;12.37;100.00
66273;BME280;58450;52.150;4.466;2023-05-23T04:48:36;102230.19;;;12.17;100.00
66273;BME280;58450;52.150;4.466;2023-05-23T04:51:04;102230.22;;;12.25;100.00
66273;BME280;58450;52.150;4.466;2023-05-23T04:53:35;102221.66;;;12.30;100.00
66273;BME280;58450;52.150;4.466;2023-05-23T04:56:06;102230.22;;;12.25;100.00
66273;BME280;58450;52.150;4.466;2023-05-23T04:58:34;102235.81;;;12.23;100.00
66273;BME280;58450;52.150;4.466;2023-05-23T05:01:02;102234.25;;;12.21;100.00
66273;BME280;58450;52.150;4.466;2023-05-23T05:03:31;102239.97;;;12.09;100.00
66273;BME280;58450;52.150;4.466;2023-05-23T05:05:58;102238.94;;;12.10;100.00
66273;BME280;58450;52.150;4.466;2023-05-23T05:08:26;102243.03;;;12.23;100.00
66273;BME280;58450;52.150;4.466;2023-05-23T05:10:55;102252.34;;;12.37;100.00
66273;BME280;58450;52.150;4.466;2023-05-23T05:13:23;102246.13;;;12.36;100.00
66273;BME280;58450;52.150;4.466;2023-05-23T05:15:50;102255.38;;;12.25;100.00
66273;BME280;58450;52.150;4.466;2023-05-23T05:18:18;102248.13;;;12.26;100.00
66273;BME280;58450;52.150;4.466;2023-05-23T05:20:46;102249.31;;;12.23;100.00
66273;BME280;58450;52.150;4.466;2023-05-23T05:23:13;102253.84;;;12.23;100.00
66273;BME280;58450;52.150;4.466;2023-05-23T05:25:41;102252.16;;;12.22;100.00
66273;BME280;58450;52.150;4.466;2023-05-23T05:28:10;102258.56;;;12.21;100.00
66273;BME280;58450;52.150;4.466;2023-05-23T05:30:37;102249.09;;;12.17;100.00
66273;BME280;58450;52.150;4.466;2023-05-23T05:33:05;102264.00;;;12.37;100.00
66273;BME280;58450;52.150;4.466;2023-05-23T05:35:32;102257.91;;;12.27;100.00
66273;BME280;58450;52.150;4.466;2023-05-23T05:38:00;102258.75;;;12.27;100.00
66273;BME280;58450;52.150;4.466;2023-05-23T05:40:29;102263.34;;;12.35;100.00
66273;BME280;58450;52.150;4.466;2023-05-23T05:42:57;102264.53;;;12.41;100.00
66273;BME280;58450;52.150;4.466;2023-05-23T05:45:26;102271.97;;;12.47;100.00
66273;BME280;58450;52.150;4.466;2023-05-23T05:47:53;102275.31;;;12.41;100.00
66273;BME280;58450;52.150;4.466;2023-05-23T05:50:21;102262.00;;;12.39;100.00
66273;BME280;58450;52.150;4.466;2023-05-23T05:52:48;102278.13;;;12.23;100.00
66273;BME280;58450;52.150;4.466;2023-05-23T05:55:16;102277.44;;;12.21;100.00
66273;BME280;58450;52.150;4.466;2023-05-23T05:57:43;102284.41;;;12.23;100.00
66273;BME280;58450;52.150;4.466;2023-05-23T06:00:13;102277.44;;;12.21;100.00
66273;BME280;58450;52.150;4.466;2023-05-23T06:02:45;102275.97;;;12.26;100.00
66273;BME280;58450;52.150;4.466;2023-05-23T06:05:13;102288.06;;;12.14;100.00
66273;BME280;58450;52.150;4.466;2023-05-23T06:07:42;102291.44;;;12.16;100.00
66273;BME280;58450;52.150;4.466;2023-05-23T06:10:10;102293.00;;;12.27;100.00
66273;BME280;58450;52.150;4.466;2023-05-23T06:12:38;102293.22;;;12.34;100.00
66273;BME280;58450;52.150;4.466;2023-05-23T06:15:07;102292.38;;;12.41;100.00
66273;BME280;58450;52.150;4.466;2023-05-23T06:17:36;102294.06;;;12.43;100.00
66273;BME280;58450;52.150;4.466;2023-05-23T06:20:06;102299.38;;;12.18;100.00
66273;BME280;58450;52.150;4.466;2023-05-23T06:22:34;102294.31;;;12.23;100.00
66273;BME280;58450;52.150;4.466;2023-05-23T06:25:01;102309.72;;;12.31;100.00
66273;BME280;58450;52.150;4.466;2023-05-23T06:27:29;102301.81;;;12.37;100.00
66273;BME280;58450;52.150;4.466;2023-05-23T06:29:57;102307.06;;;12.47;100.00
66273;BME280;58450;52.150;4.466;2023-05-23T06:32:24;102298.22;;;12.71;100.00
66273;BME280;58450;52.150;4.466;2023-05-23T06:34:52;102298.03;;;12.73;100.00
66273;BME280;58450;52.150;4.466;2023-05-23T06:37:20;102314.78;;;12.93;100.00
66273;BME280;58450;52.150;4.466;2023-05-23T06:39:48;102308.06;;;13.47;100.00
66273;BME280;58450;52.150;4.466;2023-05-23T06:42:16;102309.00;;;13.87;100.00
66273;BME280;58450;52.150;4.466;2023-05-23T06:44:43;102301.50;;;14.14;100.00
66273;BME280;58450;52.150;4.466;2023-05-23T06:47:10;102303.81;;;14.57;100.00
66273;BME280;58450;52.150;4.466;2023-05-23T06:49:38;102302.50;;;14.85;100.00
66273;BME280;58450;52.150;4.466;2023-05-23T06:52:05;102303.34;;;14.85;100.00
66273;BME280;58450;52.150;4.466;2023-05-23T06:54:34;102313.53;;;14.83;100.00
66273;BME280;58450;52.150;4.466;2023-05-23T06:57:02;102307.00;;;14.61;100.00
66273;BME280;58450;52.150;4.466;2023-05-23T06:59:30;102309.56;;;14.31;100.00
66273;BME280;58450;52.150;4.466;2023-05-23T07:01:57;102298.22;;;14.27;100.00
66273;BME280;58450;52.150;4.466;2023-05-23T07:04:25;102309.22;;;14.26;100.00
66273;BME280;58450;52.150;4.466;2023-05-23T07:06:52;102329.66;;;14.37;100.00
66273;BME280;58450;52.150;4.466;2023-05-23T07:09:20;102311.69;;;14.75;100.00
66273;BME280;58450;52.150;4.466;2023-05-23T07:11:48;102311.19;;;14.80;100.00
66273;BME280;58450;52.150;4.466;2023-05-23T07:14:16;102313.88;;;14.80;100.00
66273;BME280;58450;52.150;4.466;2023-05-23T07:16:45;102332.59;;;14.27;100.00
66273;BME280;58450;52.150;4.466;2023-05-23T07:19:12;102331.50;;;14.44;100.00
66273;BME280;58450;52.150;4.466;2023-05-23T07:21:40;102335.97;;;14.21;100.00
66273;BME280;58450;52.150;4.466;2023-05-23T07:24:07;102331.94;;;14.56;100.00
66273;BME280;58450;52.150;4.466;2023-05-23T07:26:35;102331.50;;;15.07;100.00
66273;BME280;58450;52.150;4.466;2023-05-23T07:29:04;102331.25;;;15.41;100.00
66273;BME280;58450;52.150;4.466;2023-05-23T07:31:32;102340.94;;;15.73;100.00
66273;BME280;58450;52.150;4.466;2023-05-23T07:33:59;102342.94;;;15.94;100.00
66273;BME280;58450;52.150;4.466;2023-05-23T07:36:26;102337.06;;;15.68;100.00
66273;BME280;58450;52.150;4.466;2023-05-23T07:38:58;102334.13;;;15.77;100.00
66273;BME280;58450;52.150;4.466;2023-05-23T07:41:26;102339.91;;;15.74;100.00
66273;BME280;58450;52.150;4.466;2023-05-23T07:43:53;102340.00;;;15.66;100.00
66273;BME280;58450;52.150;4.466;2023-05-23T07:46:22;102348.59;;;15.70;100.00
66273;BME280;58450;52.150;4.466;2023-05-23T07:48:50;102350.81;;;15.04;100.00
66273;BME280;58450;52.150;4.466;2023-05-23T07:51:17;102349.69;;;14.99;100.00
66273;BME280;58450;52.150;4.466;2023-05-23T07:53:46;102349.59;;;14.84;100.00
66273;BME280;58450;52.150;4.466;2023-05-23T07:56:13;102348.31;;;14.71;100.00
66273;BME280;58450;52.150;4.466;2023-05-23T07:58:42;102353.72;;;14.31;100.00
66273;BME280;58450;52.150;4.466;2023-05-23T08:01:09;102348.81;;;14.75;100.00
66273;BME280;58450;52.150;4.466;2023-05-23T08:03:38;102356.06;;;15.06;100.00
66273;BME280;58450;52.150;4.466;2023-05-23T08:06:06;102368.84;;;15.20;100.00
66273;BME280;58450;52.150;4.466;2023-05-23T08:08:34;102371.03;;;15.25;100.00
66273;BME280;58450;52.150;4.466;2023-05-23T08:11:03;102354.16;;;15.15;100.00
66273;BME280;58450;52.150;4.466;2023-05-23T08:13:30;102362.28;;;15.38;100.00
66273;BME280;58450;52.150;4.466;2023-05-23T08:15:58;102364.50;;;15.58;100.00
66273;BME280;58450;52.150;4.466;2023-05-23T08:18:25;102365.25;;;15.28;100.00
66273;BME280;58450;52.150;4.466;2023-05-23T08:20:54;102371.25;;;15.77;100.00
66273;BME280;58450;52.150;4.466;2023-05-23T08:23:22;102366.66;;;16.01;100.00
66273;BME280;58450;52.150;4.466;2023-05-23T08:25:51;102368.50;;;16.45;100.00
66273;BME280;58450;52.150;4.466;2023-05-23T08:28:18;102366.50;;;16.69;100.00
66273;BME280;58450;52.150;4.466;2023-05-23T08:30:46;102370.38;;;16.15;100.00
66273;BME280;58450;52.150;4.466;2023-05-23T08:33:14;102376.56;;;16.53;100.00
66273;BME280;58450;52.150;4.466;2023-05-23T08:35:41;102381.81;;;16.55;100.00
66273;BME280;58450;52.150;4.466;2023-05-23T08:38:10;102382.72;;;17.14;100.00
66273;BME280;58450;52.150;4.466;2023-05-23T08:40:38;102388.09;;;17.29;100.00
66273;BME280;58450;52.150;4.466;2023-05-23T08:43:11;102378.56;;;16.81;100.00
66273;BME280;58450;52.150;4.466;2023-05-23T08:45:39;102389.41;;;16.45;100.00
66273;BME280;58450;52.150;4.466;2023-05-23T08:48:08;102395.19;;;16.57;100.00
66273;BME280;58450;52.150;4.466;2023-05-23T08:50:36;102394.53;;;16.69;100.00
66273;BME280;58450;52.150;4.466;2023-05-23T08:53:08;102381.88;;;17.13;95.92
66273;BME280;58450;52.150;4.466;2023-05-23T08:55:45;102386.72;;;17.62;92.50
66273;BME280;58450;52.150;4.466;2023-05-23T08:58:14;102391.16;;;18.26;91.56
66273;BME280;58450;52.150;4.466;2023-05-23T09:00:42;102386.69;;;17.11;89.79
66273;BME280;58450;52.150;4.466;2023-05-23T09:03:11;102396.19;;;17.44;87.68
66273;BME280;58450;52.150;4.466;2023-05-23T09:05:39;102404.09;;;17.61;89.02
66273;BME280;58450;52.150;4.466;2023-05-23T09:08:09;102396.72;;;16.96;95.03
66273;BME280;58450;52.150;4.466;2023-05-23T09:10:38;102414.09;;;15.90;99.58
66273;BME280;58450;52.150;4.466;2023-05-23T09:13:05;102415.34;;;16.32;100.00
66273;BME280;58450;52.150;4.466;2023-05-23T09:15:34;102403.25;;;16.35;98.92
66273;BME280;58450;52.150;4.466;2023-05-23T09:18:02;102408.16;;;16.24;99.96
66273;BME280;58450;52.150;4.466;2023-05-23T09:20:30;102412.06;;;17.19;95.87
66273;BME280;58450;52.150;4.466;2023-05-23T09:22:57;102419.81;;;17.87;92.99
66273;BME280;58450;52.150;4.466;2023-05-23T09:25:26;102415.53;;;17.78;87.00
66273;BME280;58450;52.150;4.466;2023-05-23T09:27:54;102406.19;;;16.33;90.17
66273;BME280;58450;52.150;4.466;2023-05-23T09:30:24;102425.66;;;15.84;97.25
66273;BME280;58450;52.150;4.466;2023-05-23T09:32:58;102422.09;;;16.21;99.64
66273;BME280;58450;52.150;4.466;2023-05-23T09:35:27;102416.16;;;16.93;97.62
66273;BME280;58450;52.150;4.466;2023-05-23T09:37:56;102421.22;;;16.81;93.53
66273;BME280;58450;52.150;4.466;2023-05-23T09:40:30;102428.66;;;16.72;95.08
66273;BME280;58450;52.150;4.466;2023-05-23T09:43:01;102427.22;;;17.28;93.67
66273;BME280;58450;52.150;4.466;2023-05-23T09:45:30;102430.84;;;17.13;89.70
66273;BME280;58450;52.150;4.466;2023-05-23T09:47:58;102436.84;;;17.09;89.62
66273;BME280;58450;52.150;4.466;2023-05-23T09:50:30;102436.97;;;16.86;89.87
66273;BME280;58450;52.150;4.466;2023-05-23T09:52:59;102442.44;;;16.71;88.79
66273;BME280;58450;52.150;4.466;2023-05-23T09:55:26;102454.72;;;16.36;87.58
66273;BME280;58450;52.150;4.466;2023-05-23T09:57:57;102436.88;;;16.94;85.64
66273;BME280;58450;52.150;4.466;2023-05-23T10:00:26;102450.06;;;17.99;81.63
66273;BME280;58450;52.150;4.466;2023-05-23T10:02:57;102438.38;;;19.24;77.38
66273;BME280;58450;52.150;4.466;2023-05-23T10:05:35;102442.84;;;19.45;73.12
66273;BME280;58450;52.150;4.466;2023-05-23T10:08:07;102448.16;;;18.56;76.50
66273;BME280;58450;52.150;4.466;2023-05-23T10:14:16;102456.50;;;16.59;95.26
66273;BME280;58450;52.150;4.466;2023-05-23T10:16:54;102455.03;;;15.80;100.00
66273;BME280;58450;52.150;4.466;2023-05-23T10:19:37;102452.56;;;16.77;98.84
66273;BME280;58450;52.150;4.466;2023-05-23T10:22:11;102457.22;;;16.68;97.36
66273;BME280;58450;52.150;4.466;2023-05-23T10:24:40;102447.94;;;16.17;99.33
66273;BME280;58450;52.150;4.466;2023-05-23T10:27:12;102456.72;;;16.04;100.00
66273;BME280;58450;52.150;4.466;2023-05-23T10:29:41;102463.53;;;15.77;100.00
66273;BME280;58450;52.150;4.466;2023-05-23T10:32:11;102459.75;;;15.63;100.00
66273;BME280;58450;52.150;4.466;2023-05-23T10:34:45;102455.53;;;15.60;100.00
66273;BME280;58450;52.150;4.466;2023-05-23T10:37:28;102457.84;;;15.17;100.00
66273;BME280;58450;52.150;4.466;2023-05-23T10:40:06;102462.09;;;15.11;100.00
66273;BME280;58450;52.150;4.466;2023-05-23T10:42:51;102459.69;;;15.48;100.00
66273;BME280;58450;52.150;4.466;2023-05-23T10:45:23;102448.44;;;16.51;100.00
66273;BME280;58450;52.150;4.466;2023-05-23T10:47:51;102453.88;;;17.54;92.87
66273;BME280;58450;52.150;4.466;2023-05-23T10:50:30;102463.09;;;18.60;86.45
66273;BME280;58450;52.150;4.466;2023-05-23T10:53:01;102457.84;;;19.08;79.11
66273;BME280;58450;52.150;4.466;2023-05-23T10:55:33;102460.03;;;19.46;74.82
66273;BME280;58450;52.150;4.466;2023-05-23T10:58:20;102469.22;;;18.34;80.81
66273;BME280;58450;52.150;4.466;2023-05-23T11:00:52;102468.22;;;16.75;84.47
66273;BME280;58450;52.150;4.466;2023-05-23T11:03:34;102460.22;;;16.43;89.19
66273;BME280;58450;52.150;4.466;2023-05-23T11:06:04;102453.56;;;17.06;87.66
66273;BME280;58450;52.150;4.466;2023-05-23T11:08:38;102458.53;;;16.27;88.97
66273;BME280;58450;52.150;4.466;2023-05-23T11:11:10;102462.59;;;16.61;91.50
66273;BME280;58450;52.150;4.466;2023-05-23T11:13:56;102460.47;;;16.03;94.66
66273;BME280;58450;52.150;4.466;2023-05-23T11:16:27;102467.78;;;16.18;97.52
66273;BME280;58450;52.150;4.466;2023-05-23T11:22:01;102467.34;;;16.44;93.84
66273;BME280;58450;52.150;4.466;2023-05-23T11:24:49;102455.34;;;16.98;93.05
66273;BME280;58450;52.150;4.466;2023-05-23T11:27:25;102457.16;;;16.61;85.29
66273;BME280;58450;52.150;4.466;2023-05-23T11:30:02;102465.81;;;16.12;81.78
66273;BME280;58450;52.150;4.466;2023-05-23T11:32:30;102466.47;;;15.99;84.02
66273;BME280;58450;52.150;4.466;2023-05-23T11:34:59;102468.94;;;16.53;86.00
66273;BME280;58450;52.150;4.466;2023-05-23T11:37:27;102469.59;;;16.25;85.13
66273;BME280;58450;52.150;4.466;2023-05-23T11:39:56;102468.06;;;17.13;88.15
66273;BME280;58450;52.150;4.466;2023-05-23T11:42:24;102472.59;;;17.64;80.97
66273;BME280;58450;52.150;4.466;2023-05-23T11:44:52;102472.88;;;18.20;80.22
66273;BME280;58450;52.150;4.466;2023-05-23T11:47:21;102479.34;;;18.82;79.93
66273;BME280;58450;52.150;4.466;2023-05-23T11:49:48;102474.38;;;18.93;77.18
66273;BME280;58450;52.150;4.466;2023-05-23T11:52:16;102475.22;;;18.23;80.77
66273;BME280;58450;52.150;4.466;2023-05-23T11:54:43;102473.44;;;17.43;84.90
66273;BME280;58450;52.150;4.466;2023-05-23T11:57:12;102482.91;;;17.47;87.25
66273;BME280;58450;52.150;4.466;2023-05-23T11:59:40;102478.16;;;17.56;85.54
66273;BME280;58450;52.150;4.466;2023-05-23T12:02:07;102483.06;;;17.61;82.53
66273;BME280;58450;52.150;4.466;2023-05-23T12:04:36;102479.03;;;17.56;81.67
66273;BME280;58450;52.150;4.466;2023-05-23T12:07:04;102475.31;;;17.86;80.91
66273;BME280;58450;52.150;4.466;2023-05-23T12:09:41;102475.41;;;19.60;75.40
66273;BME280;58450;52.150;4.466;2023-05-23T12:12:09;102481.31;;;19.77;67.24
66273;BME280;58450;52.150;4.466;2023-05-23T12:14:38;102488.72;;;18.38;69.64
66273;BME280;58450;52.150;4.466;2023-05-23T12:17:10;102486.88;;;19.22;70.70
66273;BME280;58450;52.150;4.466;2023-05-23T12:19:44;102479.78;;;19.48;67.33
66273;BME280;58450;52.150;4.466;2023-05-23T12:22:12;102483.06;;;18.68;68.56
66273;BME280;58450;52.150;4.466;2023-05-23T12:24:44;102482.31;;;18.52;69.24
66273;BME280;58450;52.150;4.466;2023-05-23T12:27:12;102491.72;;;19.27;69.83
66273;BME280;58450;52.150;4.466;2023-05-23T12:29:40;102496.06;;;20.03;65.87
66273;BME280;58450;52.150;4.466;2023-05-23T12:32:07;102486.47;;;20.87;61.82
66273;BME280;58450;52.150;4.466;2023-05-23T12:34:41;102492.66;;;21.53;58.72
66273;BME280;58450;52.150;4.466;2023-05-23T12:37:08;102492.31;;;22.25;55.39
66273;BME280;58450;52.150;4.466;2023-05-23T12:39:42;102498.50;;;23.33;51.15
66273;BME280;58450;52.150;4.466;2023-05-23T12:42:10;102500.72;;;23.05;50.84
66273;BME280;58450;52.150;4.466;2023-05-23T12:44:39;102493.56;;;23.23;47.31
66273;BME280;58450;52.150;4.466;2023-05-23T12:47:08;102490.75;;;23.11;49.58
66273;BME280;58450;52.150;4.466;2023-05-23T12:49:36;102491.94;;;23.34;50.85
66273;BME280;58450;52.150;4.466;2023-05-23T12:52:06;102485.41;;;24.01;50.17
66273;BME280;58450;52.150;4.466;2023-05-23T12:54:33;102499.31;;;23.64;48.35
66273;BME280;58450;52.150;4.466;2023-05-23T12:57:01;102484.16;;;22.81;50.19
66273;BME280;58450;52.150;4.466;2023-05-23T12:59:28;102487.63;;;23.92;50.71
66273;BME280;58450;52.150;4.466;2023-05-23T13:01:55;102479.78;;;24.31;49.75